createdAt,value
2022-08-11T00:04:27.144Z,2.97
2022-08-11T00:09:39.429Z,2.65
2022-08-11T00:14:44.466Z,3.08
2022-08-11T00:20:11.968Z,2.50
2022-08-11T00:25:12.145Z,2.88
2022-08-11T00:30:15.025Z,2.80
2022-08-11T00:35:56.229Z,2.97
2022-08-11T00:40:50.888Z,2.92
2022-08-11T00:46:14.793Z,3.05
2022-08-11T00:52:04.688Z,3.10
2022-08-11T00:57:38.405Z,3.30
2022-08-11T01:03:18.305Z,3.40
2022-08-11T01:08:57.870Z,3.23
2022-08-11T01:14:33.887Z,2.93
2022-08-11T01:20:45.868Z,3.03
2022-08-11T01:25:57.950Z,3.30
2022-08-11T01:31:56.804Z,3.27
2022-08-11T01:37:06.811Z,3.47
2022-08-11T01:42:49.312Z,3.47
2022-08-11T01:48:16.486Z,3.47
2022-08-11T01:53:59.970Z,3.80
2022-08-11T01:59:14.520Z,3.50
2022-08-11T02:04:54.910Z,3.40
2022-08-11T02:10:35.595Z,3.57
2022-08-11T02:15:51.844Z,3.70
2022-08-11T02:21:26.776Z,3.43
2022-08-11T02:26:40.061Z,3.40
2022-08-11T02:32:31.802Z,3.10
2022-08-11T02:37:33.836Z,3.60
2022-08-11T02:42:49.471Z,3.77
2022-08-11T02:48:16.588Z,3.47
2022-08-11T02:53:30.589Z,3.60
2022-08-11T02:58:44.886Z,3.50
2022-08-11T03:04:03.494Z,3.73
2022-08-11T03:09:24.556Z,3.50
2022-08-11T03:15:06.314Z,3.97
2022-08-11T03:20:33.483Z,4.23
2022-08-11T03:25:55.115Z,4.47
2022-08-11T03:31:20.415Z,4.00
2022-08-11T03:37:16.485Z,3.97
2022-08-11T03:43:11.157Z,4.07
2022-08-11T03:49:00.599Z,4.27
2022-08-11T03:54:34.199Z,4.40
2022-08-11T03:59:56.440Z,4.30
2022-08-11T04:05:17.102Z,4.23
2022-08-11T04:10:53.225Z,4.63
2022-08-11T04:16:20.076Z,4.37
2022-08-11T04:21:40.859Z,4.67
2022-08-11T04:27:24.221Z,4.53
2022-08-11T04:33:22.554Z,4.60
2022-08-11T04:38:59.017Z,4.17
2022-08-11T04:44:25.665Z,5.27
2022-08-11T04:50:04.599Z,4.70
2022-08-11T04:55:37.835Z,4.70
2022-08-11T05:01:27.950Z,4.57
2022-08-11T05:07:04.501Z,4.97
2022-08-11T05:12:11.467Z,5.57
2022-08-11T05:17:40.640Z,5.33
2022-08-11T05:23:10.674Z,5.23
2022-08-11T05:28:46.943Z,5.70
2022-08-11T05:34:19.712Z,5.33
2022-08-11T05:39:46.866Z,4.90
2022-08-11T05:45:15.530Z,5.57
2022-08-11T05:50:38.242Z,4.80
2022-08-11T05:56:03.024Z,5.43
2022-08-11T06:01:06.290Z,5.03
2022-08-11T06:06:10.271Z,5.13
2022-08-11T06:11:13.771Z,4.93
2022-08-11T06:16:23.197Z,4.70
2022-08-11T06:21:25.987Z,4.45
2022-08-11T06:26:28.222Z,5.00
2022-08-11T06:31:31.567Z,5.63
2022-08-11T06:37:00.444Z,4.38
2022-08-11T06:42:09.596Z,5.07
2022-08-11T06:47:20.497Z,5.20
2022-08-11T06:52:35.351Z,4.55
2022-08-11T06:57:58.997Z,4.63
2022-08-11T07:03:09.146Z,5.05
2022-08-11T07:08:58.906Z,4.68
2022-08-11T07:14:22.237Z,4.60
2022-08-11T07:19:47.920Z,4.30
2022-08-11T07:25:16.598Z,4.63
2022-08-11T07:30:19.041Z,4.57
2022-08-11T07:35:28.835Z,4.15
2022-08-11T07:40:31.449Z,3.40
2022-08-11T07:45:53.076Z,4.13
2022-08-11T07:51:13.526Z,4.13
2022-08-11T07:56:17.372Z,3.65
2022-08-11T08:01:44.291Z,3.75
2022-08-11T08:07:05.373Z,3.33
2022-08-11T08:12:26.959Z,3.45
2022-08-11T08:18:09.263Z,3.20
2022-08-11T08:23:11.368Z,3.30
2022-08-11T08:28:17.353Z,2.85
2022-08-11T08:33:21.432Z,3.08
2022-08-11T08:38:24.227Z,3.17
2022-08-11T08:43:26.444Z,2.80
2022-08-11T08:48:31.197Z,3.08
2022-08-11T08:53:36.392Z,2.80
2022-08-11T08:58:41.572Z,2.70
2022-08-11T09:04:07.183Z,2.90
2022-08-11T09:09:08.964Z,2.90
2022-08-11T09:14:15.046Z,2.58
2022-08-11T09:19:20.009Z,2.83
2022-08-11T09:24:57.362Z,2.67
2022-08-11T09:29:59.864Z,2.97
2022-08-11T09:35:03.501Z,2.65
2022-08-11T09:40:27.998Z,2.70
2022-08-11T09:45:40.243Z,2.70
2022-08-11T09:50:42.796Z,2.90
2022-08-11T09:55:47.973Z,2.80
2022-08-11T10:00:51.615Z,2.42
2022-08-11T10:06:16.941Z,2.60
2022-08-11T10:11:23.615Z,2.95
2022-08-11T10:16:28.886Z,2.50
2022-08-11T10:21:39.073Z,2.92
2022-08-11T10:26:53.711Z,2.90
2022-08-11T10:32:16.371Z,2.50
2022-08-11T10:37:22.515Z,2.72
2022-08-11T10:42:57.081Z,2.67
2022-08-11T10:48:00.530Z,3.00
2022-08-11T10:53:22.390Z,2.58
2022-08-11T10:58:43.523Z,2.60
2022-08-11T11:03:46.974Z,2.80
2022-08-11T11:08:57.787Z,2.90
2022-08-11T11:14:22.194Z,2.55
2022-08-11T11:19:29.978Z,2.80
2022-08-11T11:25:16.624Z,2.47
2022-08-11T11:30:19.094Z,2.70
2022-08-11T11:35:31.288Z,2.88
2022-08-11T11:40:34.347Z,2.17
2022-08-11T11:45:36.943Z,2.60
2022-08-11T11:50:39.391Z,2.20
2022-08-11T11:55:41.830Z,2.38
2022-08-11T12:01:02.757Z,2.15
2022-08-11T12:06:05.633Z,2.45
2022-08-11T12:11:29.507Z,1.90
2022-08-11T12:16:36.443Z,2.50
2022-08-11T12:22:00.913Z,2.47
2022-08-11T12:27:25.030Z,2.03
2022-08-11T12:32:43.424Z,1.88
2022-08-11T12:37:49.582Z,1.80
2022-08-11T12:43:21.522Z,2.17
2022-08-11T12:49:01.069Z,2.20
2022-08-11T12:54:18.167Z,1.83
2022-08-11T12:59:39.176Z,1.75
2022-08-11T13:05:01.218Z,2.10
2022-08-11T13:10:06.435Z,2.30
2022-08-11T13:15:19.418Z,2.00
2022-08-11T13:20:23.440Z,1.80
2022-08-11T13:25:28.619Z,2.33
2022-08-11T13:30:50.643Z,2.25
2022-08-11T13:35:54.405Z,1.70
2022-08-11T13:40:56.853Z,1.90
2022-08-11T13:46:19.224Z,2.03
2022-08-11T13:51:35.106Z,2.17
2022-08-11T13:56:44.052Z,2.22
2022-08-11T14:02:21.224Z,1.80
2022-08-11T14:07:22.299Z,2.17
2022-08-11T14:12:45.937Z,2.13
2022-08-11T14:18:01.700Z,2.00
2022-08-11T14:23:04.382Z,2.00
2022-08-11T14:28:32.641Z,2.53
2022-08-11T14:33:38.068Z,2.00
2022-08-11T14:38:54.549Z,2.58
2022-08-11T14:44:16.057Z,2.38
2022-08-11T14:49:19.044Z,2.40
2022-08-11T14:54:48.703Z,2.10
2022-08-11T14:59:51.256Z,2.60
2022-08-11T15:04:56.122Z,2.60
2022-08-11T15:10:16.019Z,2.15
2022-08-11T15:15:38.218Z,2.63
2022-08-11T15:20:59.285Z,2.50
2022-08-11T15:26:54.075Z,2.63
2022-08-11T15:32:15.420Z,2.25
2022-08-11T15:37:30.903Z,2.65
2022-08-11T15:42:58.046Z,2.20
2022-08-11T15:48:06.853Z,2.40
2022-08-11T15:53:25.698Z,2.42
2022-08-11T15:59:13.730Z,2.08
2022-08-11T16:04:20.493Z,2.10
2022-08-11T16:09:27.830Z,2.40
2022-08-11T16:14:58.303Z,1.88
2022-08-11T16:20:02.697Z,2.00
2022-08-11T16:27:01.791Z,2.10
2022-08-11T16:30:32.081Z,2.38
2022-08-11T16:35:56.714Z,2.00
2022-08-11T16:41:00.677Z,2.40
2022-08-11T16:46:24.555Z,2.40
2022-08-11T16:51:26.690Z,2.38
2022-08-11T16:56:34.185Z,2.20
2022-08-11T17:01:36.639Z,1.80
2022-08-11T17:07:02.523Z,2.35
2022-08-11T17:12:45.952Z,2.30
2022-08-11T17:17:48.195Z,1.90
2022-08-11T17:23:13.136Z,2.30
2022-08-11T17:28:17.774Z,2.33
2022-08-11T17:33:39.873Z,2.50
2022-08-11T17:38:43.589Z,3.00
2022-08-11T17:44:05.416Z,2.50
2022-08-11T17:49:09.359Z,2.63
2022-08-11T17:54:30.729Z,2.58
2022-08-11T17:59:53.171Z,2.60
2022-08-11T18:04:57.591Z,2.42
2022-08-11T18:10:19.537Z,2.63
2022-08-11T18:15:40.608Z,3.10
2022-08-11T18:21:17.864Z,2.58
2022-08-11T18:26:41.757Z,2.63
2022-08-11T18:32:06.646Z,2.72
2022-08-11T18:37:33.905Z,2.55
2022-08-11T18:42:56.314Z,2.78
2022-08-11T18:48:21.745Z,3.10
2022-08-11T18:53:47.609Z,3.63
2022-08-11T18:59:09.222Z,2.67
2022-08-11T19:04:30.335Z,3.33
2022-08-11T19:09:53.631Z,3.10
2022-08-11T19:15:17.134Z,2.88
2022-08-11T19:20:41.692Z,3.30
2022-08-11T19:26:04.791Z,2.92
2022-08-11T19:31:27.209Z,3.25
2022-08-11T19:36:48.760Z,3.30
2022-08-11T19:42:09.402Z,3.50
2022-08-11T19:47:30.976Z,3.55
2022-08-11T19:52:53.009Z,3.47
2022-08-11T19:58:15.339Z,3.67
2022-08-11T20:03:35.933Z,2.97
2022-08-11T20:09:00.684Z,3.10
2022-08-11T20:14:22.204Z,3.10
2022-08-11T20:19:55.935Z,3.42
2022-08-11T20:25:19.421Z,3.33
2022-08-11T20:30:40.513Z,3.50
2022-08-11T20:36:01.448Z,3.28
2022-08-11T20:41:24.201Z,3.75
2022-08-11T20:46:46.333Z,3.55
2022-08-11T20:52:10.012Z,4.38
2022-08-11T20:57:58.735Z,3.85
2022-08-11T21:03:35.687Z,3.67
2022-08-11T21:08:59.969Z,3.70
2022-08-11T21:14:25.887Z,2.92
2022-08-11T21:19:59.773Z,3.50
2022-08-11T21:25:27.149Z,3.35
2022-08-11T21:30:49.309Z,4.00
2022-08-11T21:36:10.259Z,3.83
2022-08-11T21:41:31.663Z,3.88
2022-08-11T21:46:53.737Z,3.75
2022-08-11T21:52:14.588Z,3.58
2022-08-11T21:57:36.087Z,4.03
2022-08-11T22:03:09.201Z,4.05
2022-08-11T22:08:30.674Z,4.25
2022-08-11T22:14:00.727Z,4.07
2022-08-11T22:19:28.538Z,3.70
2022-08-11T22:24:51.271Z,3.83
2022-08-11T22:30:17.916Z,4.03
2022-08-11T22:35:38.953Z,3.92
2022-08-11T22:40:59.614Z,4.03
2022-08-11T22:46:20.355Z,3.47
2022-08-11T22:51:41.828Z,3.53
2022-08-11T22:57:02.202Z,3.90
2022-08-11T23:02:24.780Z,3.88
2022-08-11T23:07:50.734Z,3.97
2022-08-11T23:13:13.559Z,4.25
2022-08-11T23:18:43.466Z,4.28
2022-08-11T23:24:04.303Z,4.93
2022-08-11T23:29:27.146Z,4.40
2022-08-11T23:35:04.044Z,4.43
2022-08-11T23:40:37.847Z,4.25
2022-08-11T23:45:58.461Z,4.25
2022-08-11T23:51:19.392Z,4.50
2022-08-11T23:56:39.986Z,4.57
